sensor_id;sensor_type;location;lat;lon;timestamp;P1;durP1;ratioP1;P2;durP2;ratioP2
14470;SDS011;7321;50.802;4.336;2024-03-08T00:12:15;22.97;;;14.77;;
14470;SDS011;7321;50.802;4.336;2024-03-08T00:14:40;23.07;;;14.77;;
14470;SDS011;7321;50.802;4.336;2024-03-08T00:17:06;23.27;;;15.97;;
14470;SDS011;7321;50.802;4.336;2024-03-08T00:19:32;27.17;;;15.57;;
14470;SDS011;7321;50.802;4.336;2024-03-08T00:21:58;24.37;;;15.90;;
14470;SDS011;7321;50.802;4.336;2024-03-08T00:24:24;24.77;;;16.70;;
14470;SDS011;7321;50.802;4.336;2024-03-08T00:26:50;21.33;;;15.03;;
14470;SDS011;7321;50.802;4.336;2024-03-08T00:29:16;23.47;;;15.47;;
14470;SDS011;7321;50.802;4.336;2024-03-08T00:31:42;19.67;;;15.37;;
14470;SDS011;7321;50.802;4.336;2024-03-08T00:34:08;23.83;;;15.50;;
14470;SDS011;7321;50.802;4.336;2024-03-08T00:36:36;24.63;;;16.23;;
14470;SDS011;7321;50.802;4.336;2024-03-08T00:39:02;25.77;;;15.63;;
14470;SDS011;7321;50.802;4.336;2024-03-08T00:41:32;26.20;;;16.23;;
14470;SDS011;7321;50.802;4.336;2024-03-08T00:43:58;21.70;;;15.83;;
14470;SDS011;7321;50.802;4.336;2024-03-08T00:46:35;26.43;;;16.27;;
14470;SDS011;7321;50.802;4.336;2024-03-08T00:49:01;25.60;;;16.00;;
14470;SDS011;7321;50.802;4.336;2024-03-08T00:51:27;23.57;;;16.00;;
14470;SDS011;7321;50.802;4.336;2024-03-08T00:53:52;25.40;;;15.77;;
14470;SDS011;7321;50.802;4.336;2024-03-08T00:56:18;27.13;;;15.87;;
14470;SDS011;7321;50.802;4.336;2024-03-08T00:58:44;23.80;;;16.77;;
14470;SDS011;7321;50.802;4.336;2024-03-08T01:01:10;24.77;;;16.63;;
14470;SDS011;7321;50.802;4.336;2024-03-08T01:03:38;22.40;;;16.47;;
14470;SDS011;7321;50.802;4.336;2024-03-08T01:06:04;24.53;;;16.77;;
14470;SDS011;7321;50.802;4.336;2024-03-08T01:08:30;24.53;;;15.80;;
14470;SDS011;7321;50.802;4.336;2024-03-08T01:10:55;27.90;;;16.33;;
14470;SDS011;7321;50.802;4.336;2024-03-08T01:13:21;26.33;;;16.37;;
14470;SDS011;7321;50.802;4.336;2024-03-08T01:15:47;24.23;;;17.40;;
14470;SDS011;7321;50.802;4.336;2024-03-08T01:18:13;23.63;;;16.97;;
14470;SDS011;7321;50.802;4.336;2024-03-08T01:20:39;24.90;;;17.07;;
14470;SDS011;7321;50.802;4.336;2024-03-08T01:23:06;26.73;;;17.47;;
14470;SDS011;7321;50.802;4.336;2024-03-08T01:25:33;27.07;;;17.10;;
14470;SDS011;7321;50.802;4.336;2024-03-08T01:27:59;25.90;;;17.13;;
14470;SDS011;7321;50.802;4.336;2024-03-08T01:30:25;27.23;;;17.20;;
14470;SDS011;7321;50.802;4.336;2024-03-08T01:32:50;24.47;;;17.70;;
14470;SDS011;7321;50.802;4.336;2024-03-08T01:35:16;22.93;;;16.67;;
14470;SDS011;7321;50.802;4.336;2024-03-08T01:37:43;22.63;;;16.23;;
14470;SDS011;7321;50.802;4.336;2024-03-08T01:40:09;25.57;;;17.57;;
14470;SDS011;7321;50.802;4.336;2024-03-08T01:42:35;24.57;;;17.07;;
14470;SDS011;7321;50.802;4.336;2024-03-08T01:45:06;24.93;;;17.37;;
14470;SDS011;7321;50.802;4.336;2024-03-08T01:47:32;25.87;;;17.37;;
14470;SDS011;7321;50.802;4.336;2024-03-08T01:49:59;27.23;;;17.30;;
14470;SDS011;7321;50.802;4.336;2024-03-08T01:52:28;24.70;;;17.33;;
14470;SDS011;7321;50.802;4.336;2024-03-08T01:54:57;25.67;;;17.57;;
14470;SDS011;7321;50.802;4.336;2024-03-08T01:57:29;25.40;;;17.30;;
14470;SDS011;7321;50.802;4.336;2024-03-08T01:59:58;25.83;;;17.67;;
14470;SDS011;7321;50.802;4.336;2024-03-08T02:02:28;25.23;;;18.10;;
14470;SDS011;7321;50.802;4.336;2024-03-08T02:04:57;25.60;;;18.00;;
14470;SDS011;7321;50.802;4.336;2024-03-08T02:07:23;24.23;;;18.00;;
14470;SDS011;7321;50.802;4.336;2024-03-08T02:09:48;27.07;;;19.03;;
14470;SDS011;7321;50.802;4.336;2024-03-08T02:12:14;26.00;;;18.53;;
14470;SDS011;7321;50.802;4.336;2024-03-08T02:14:40;24.77;;;18.93;;
14470;SDS011;7321;50.802;4.336;2024-03-08T02:17:06;27.20;;;18.70;;
14470;SDS011;7321;50.802;4.336;2024-03-08T02:19:32;26.20;;;18.43;;
14470;SDS011;7321;50.802;4.336;2024-03-08T02:22:00;29.83;;;19.20;;
14470;SDS011;7321;50.802;4.336;2024-03-08T02:24:29;26.80;;;19.30;;
14470;SDS011;7321;50.802;4.336;2024-03-08T02:26:55;27.67;;;19.40;;
14470;SDS011;7321;50.802;4.336;2024-03-08T02:29:21;27.30;;;19.17;;
14470;SDS011;7321;50.802;4.336;2024-03-08T02:31:50;28.43;;;19.57;;
14470;SDS011;7321;50.802;4.336;2024-03-08T02:34:16;26.67;;;18.90;;
14470;SDS011;7321;50.802;4.336;2024-03-08T02:36:42;30.60;;;20.83;;
14470;SDS011;7321;50.802;4.336;2024-03-08T02:39:08;28.03;;;20.33;;
14470;SDS011;7321;50.802;4.336;2024-03-08T02:41:35;26.87;;;19.47;;
14470;SDS011;7321;50.802;4.336;2024-03-08T02:44:01;27.77;;;19.87;;
14470;SDS011;7321;50.802;4.336;2024-03-08T02:46:27;31.27;;;21.57;;
14470;SDS011;7321;50.802;4.336;2024-03-08T02:48:53;28.00;;;19.63;;
14470;SDS011;7321;50.802;4.336;2024-03-08T02:51:19;28.80;;;20.17;;
14470;SDS011;7321;50.802;4.336;2024-03-08T02:53:45;27.77;;;19.57;;
14470;SDS011;7321;50.802;4.336;2024-03-08T02:56:14;30.70;;;20.27;;
14470;SDS011;7321;50.802;4.336;2024-03-08T02:58:42;29.73;;;21.23;;
14470;SDS011;7321;50.802;4.336;2024-03-08T03:01:08;30.20;;;19.47;;
14470;SDS011;7321;50.802;4.336;2024-03-08T03:03:35;29.03;;;20.33;;
14470;SDS011;7321;50.802;4.336;2024-03-08T03:06:02;29.67;;;20.83;;
14470;SDS011;7321;50.802;4.336;2024-03-08T03:08:27;27.67;;;20.73;;
14470;SDS011;7321;50.802;4.336;2024-03-08T03:10:53;30.17;;;20.33;;
14470;SDS011;7321;50.802;4.336;2024-03-08T03:13:21;29.43;;;21.50;;
14470;SDS011;7321;50.802;4.336;2024-03-08T03:15:48;29.30;;;21.20;;
14470;SDS011;7321;50.802;4.336;2024-03-08T03:18:14;29.73;;;20.57;;
14470;SDS011;7321;50.802;4.336;2024-03-08T03:20:40;30.10;;;22.37;;
14470;SDS011;7321;50.802;4.336;2024-03-08T03:23:08;29.00;;;21.23;;
14470;SDS011;7321;50.802;4.336;2024-03-08T03:25:34;30.50;;;21.97;;
14470;SDS011;7321;50.802;4.336;2024-03-08T03:28:01;30.07;;;21.47;;
14470;SDS011;7321;50.802;4.336;2024-03-08T03:30:27;28.87;;;21.03;;
14470;SDS011;7321;50.802;4.336;2024-03-08T03:32:58;29.57;;;21.77;;
14470;SDS011;7321;50.802;4.336;2024-03-08T03:35:32;29.43;;;21.87;;
14470;SDS011;7321;50.802;4.336;2024-03-08T03:37:57;29.40;;;21.10;;
14470;SDS011;7321;50.802;4.336;2024-03-08T03:40:33;30.77;;;23.13;;
14470;SDS011;7321;50.802;4.336;2024-03-08T03:43:00;31.43;;;22.37;;
14470;SDS011;7321;50.802;4.336;2024-03-08T03:45:27;29.80;;;22.60;;
14470;SDS011;7321;50.802;4.336;2024-03-08T03:47:52;30.00;;;22.30;;
14470;SDS011;7321;50.802;4.336;2024-03-08T03:50:18;29.10;;;22.13;;
14470;SDS011;7321;50.802;4.336;2024-03-08T03:52:45;32.80;;;23.17;;
14470;SDS011;7321;50.802;4.336;2024-03-08T03:55:12;29.07;;;21.77;;
14470;SDS011;7321;50.802;4.336;2024-03-08T03:57:38;30.83;;;22.57;;
14470;SDS011;7321;50.802;4.336;2024-03-08T04:00:05;28.93;;;22.60;;
14470;SDS011;7321;50.802;4.336;2024-03-08T04:02:35;31.63;;;23.53;;
14470;SDS011;7321;50.802;4.336;2024-03-08T04:05:05;33.93;;;23.43;;
14470;SDS011;7321;50.802;4.336;2024-03-08T04:07:32;29.13;;;21.70;;
14470;SDS011;7321;50.802;4.336;2024-03-08T04:09:58;32.17;;;22.17;;
14470;SDS011;7321;50.802;4.336;2024-03-08T04:12:24;30.23;;;21.97;;
14470;SDS011;7321;50.802;4.336;2024-03-08T04:14:50;31.63;;;23.10;;
14470;SDS011;7321;50.802;4.336;2024-03-08T04:17:16;31.67;;;22.53;;
14470;SDS011;7321;50.802;4.336;2024-03-08T04:19:43;34.13;;;22.60;;
14470;SDS011;7321;50.802;4.336;2024-03-08T04:22:09;33.33;;;23.33;;
14470;SDS011;7321;50.802;4.336;2024-03-08T04:24:35;33.53;;;23.43;;
14470;SDS011;7321;50.802;4.336;2024-03-08T04:27:00;29.87;;;23.13;;
14470;SDS011;7321;50.802;4.336;2024-03-08T04:29:26;31.17;;;23.77;;
14470;SDS011;7321;50.802;4.336;2024-03-08T04:31:52;33.07;;;22.63;;
14470;SDS011;7321;50.802;4.336;2024-03-08T04:34:20;34.57;;;23.67;;
14470;SDS011;7321;50.802;4.336;2024-03-08T04:36:48;32.03;;;23.37;;
14470;SDS011;7321;50.802;4.336;2024-03-08T04:39:14;30.27;;;22.90;;
14470;SDS011;7321;50.802;4.336;2024-03-08T04:41:41;32.97;;;23.67;;
14470;SDS011;7321;50.802;4.336;2024-03-08T04:44:09;32.30;;;23.90;;
14470;SDS011;7321;50.802;4.336;2024-03-08T04:46:36;33.07;;;22.93;;
14470;SDS011;7321;50.802;4.336;2024-03-08T04:49:01;30.70;;;22.30;;
14470;SDS011;7321;50.802;4.336;2024-03-08T04:51:27;33.37;;;24.23;;
14470;SDS011;7321;50.802;4.336;2024-03-08T04:53:53;32.53;;;23.70;;
14470;SDS011;7321;50.802;4.336;2024-03-08T04:56:19;31.37;;;23.13;;
14470;SDS011;7321;50.802;4.336;2024-03-08T04:58:45;30.87;;;24.00;;
14470;SDS011;7321;50.802;4.336;2024-03-08T05:01:14;33.17;;;23.30;;
14470;SDS011;7321;50.802;4.336;2024-03-08T05:03:40;33.67;;;24.03;;
14470;SDS011;7321;50.802;4.336;2024-03-08T05:06:06;31.73;;;23.23;;
14470;SDS011;7321;50.802;4.336;2024-03-08T05:08:32;35.10;;;24.77;;
14470;SDS011;7321;50.802;4.336;2024-03-08T05:10:58;32.90;;;23.37;;
14470;SDS011;7321;50.802;4.336;2024-03-08T05:13:26;33.23;;;23.23;;
14470;SDS011;7321;50.802;4.336;2024-03-08T05:15:52;32.27;;;23.87;;
14470;SDS011;7321;50.802;4.336;2024-03-08T05:18:18;32.20;;;23.37;;
14470;SDS011;7321;50.802;4.336;2024-03-08T05:20:43;29.43;;;22.77;;
14470;SDS011;7321;50.802;4.336;2024-03-08T05:23:10;33.47;;;24.23;;
14470;SDS011;7321;50.802;4.336;2024-03-08T05:25:35;31.63;;;22.90;;
14470;SDS011;7321;50.802;4.336;2024-03-08T05:28:01;31.13;;;22.10;;
14470;SDS011;7321;50.802;4.336;2024-03-08T05:30:29;31.37;;;23.30;;
14470;SDS011;7321;50.802;4.336;2024-03-08T05:32:55;31.73;;;23.20;;
14470;SDS011;7321;50.802;4.336;2024-03-08T05:35:22;34.37;;;22.83;;
14470;SDS011;7321;50.802;4.336;2024-03-08T05:37:47;32.07;;;23.53;;
14470;SDS011;7321;50.802;4.336;2024-03-08T05:40:13;32.67;;;23.10;;
14470;SDS011;7321;50.802;4.336;2024-03-08T05:42:40;31.57;;;22.57;;
14470;SDS011;7321;50.802;4.336;2024-03-08T05:45:06;32.73;;;23.17;;
14470;SDS011;7321;50.802;4.336;2024-03-08T05:47:32;34.13;;;23.93;;
14470;SDS011;7321;50.802;4.336;2024-03-08T05:49:58;30.90;;;23.60;;
14470;SDS011;7321;50.802;4.336;2024-03-08T05:52:25;32.70;;;23.57;;
14470;SDS011;7321;50.802;4.336;2024-03-08T05:54:53;31.67;;;22.93;;
14470;SDS011;7321;50.802;4.336;2024-03-08T05:57:19;30.83;;;23.20;;
14470;SDS011;7321;50.802;4.336;2024-03-08T05:59:47;35.33;;;24.70;;
14470;SDS011;7321;50.802;4.336;2024-03-08T06:02:13;30.10;;;22.80;;
14470;SDS011;7321;50.802;4.336;2024-03-08T06:04:43;32.93;;;23.57;;
14470;SDS011;7321;50.802;4.336;2024-03-08T06:07:12;32.40;;;23.17;;
14470;SDS011;7321;50.802;4.336;2024-03-08T06:09:38;32.63;;;23.40;;
14470;SDS011;7321;50.802;4.336;2024-03-08T06:12:04;35.33;;;24.40;;
14470;SDS011;7321;50.802;4.336;2024-03-08T06:14:31;30.17;;;22.77;;
14470;SDS011;7321;50.802;4.336;2024-03-08T06:16:57;31.63;;;22.37;;
14470;SDS011;7321;50.802;4.336;2024-03-08T06:19:23;36.37;;;23.40;;
14470;SDS011;7321;50.802;4.336;2024-03-08T06:21:49;35.23;;;24.07;;
14470;SDS011;7321;50.802;4.336;2024-03-08T06:24:14;30.60;;;23.70;;
14470;SDS011;7321;50.802;4.336;2024-03-08T06:26:40;32.13;;;24.27;;
14470;SDS011;7321;50.802;4.336;2024-03-08T06:29:06;35.23;;;24.07;;
14470;SDS011;7321;50.802;4.336;2024-03-08T06:31:32;32.00;;;22.77;;
14470;SDS011;7321;50.802;4.336;2024-03-08T06:33:58;29.60;;;21.17;;
14470;SDS011;7321;50.802;4.336;2024-03-08T06:36:24;32.00;;;22.37;;
14470;SDS011;7321;50.802;4.336;2024-03-08T06:38:50;32.43;;;23.03;;
14470;SDS011;7321;50.802;4.336;2024-03-08T06:41:16;30.67;;;22.30;;
14470;SDS011;7321;50.802;4.336;2024-03-08T06:43:42;30.53;;;22.90;;
14470;SDS011;7321;50.802;4.336;2024-03-08T06:46:09;34.37;;;22.93;;
14470;SDS011;7321;50.802;4.336;2024-03-08T06:48:37;31.40;;;22.43;;
14470;SDS011;7321;50.802;4.336;2024-03-08T06:51:04;30.20;;;22.40;;
14470;SDS011;7321;50.802;4.336;2024-03-08T06:53:30;27.70;;;21.90;;
14470;SDS011;7321;50.802;4.336;2024-03-08T06:55:57;31.27;;;22.97;;
14470;SDS011;7321;50.802;4.336;2024-03-08T06:58:23;33.57;;;22.57;;
14470;SDS011;7321;50.802;4.336;2024-03-08T07:00:49;31.33;;;22.53;;
14470;SDS011;7321;50.802;4.336;2024-03-08T07:03:18;32.10;;;22.87;;
14470;SDS011;7321;50.802;4.336;2024-03-08T07:05:44;35.37;;;23.40;;
14470;SDS011;7321;50.802;4.336;2024-03-08T07:08:10;30.10;;;22.30;;
14470;SDS011;7321;50.802;4.336;2024-03-08T07:10:39;30.07;;;21.70;;
14470;SDS011;7321;50.802;4.336;2024-03-08T07:13:07;33.27;;;23.33;;
14470;SDS011;7321;50.802;4.336;2024-03-08T07:15:33;30.10;;;21.20;;
14470;SDS011;7321;50.802;4.336;2024-03-08T07:18:00;29.77;;;21.77;;
14470;SDS011;7321;50.802;4.336;2024-03-08T07:20:26;33.23;;;22.13;;
14470;SDS011;7321;50.802;4.336;2024-03-08T07:22:53;29.90;;;21.43;;
14470;SDS011;7321;50.802;4.336;2024-03-08T07:25:20;30.07;;;21.00;;
14470;SDS011;7321;50.802;4.336;2024-03-08T07:27:50;30.70;;;22.33;;
14470;SDS011;7321;50.802;4.336;2024-03-08T07:30:17;30.90;;;21.73;;
14470;SDS011;7321;50.802;4.336;2024-03-08T07:33:02;30.67;;;21.17;;
14470;SDS011;7321;50.802;4.336;2024-03-08T07:35:28;30.07;;;21.37;;
14470;SDS011;7321;50.802;4.336;2024-03-08T07:37:54;31.63;;;21.77;;
14470;SDS011;7321;50.802;4.336;2024-03-08T07:40:21;32.97;;;22.70;;
14470;SDS011;7321;50.802;4.336;2024-03-08T07:42:47;32.83;;;22.33;;
14470;SDS011;7321;50.802;4.336;2024-03-08T07:45:12;30.27;;;21.40;;
14470;SDS011;7321;50.802;4.336;2024-03-08T07:47:38;30.80;;;21.73;;
14470;SDS011;7321;50.802;4.336;2024-03-08T07:50:05;29.10;;;22.03;;
14470;SDS011;7321;50.802;4.336;2024-03-08T07:52:34;30.80;;;22.27;;
14470;SDS011;7321;50.802;4.336;2024-03-08T07:55:01;28.53;;;20.20;;
14470;SDS011;7321;50.802;4.336;2024-03-08T07:57:31;29.93;;;21.33;;
14470;SDS011;7321;50.802;4.336;2024-03-08T07:59:57;30.67;;;21.67;;
14470;SDS011;7321;50.802;4.336;2024-03-08T08:02:23;27.80;;;21.13;;
14470;SDS011;7321;50.802;4.336;2024-03-08T08:04:49;26.77;;;20.67;;
14470;SDS011;7321;50.802;4.336;2024-03-08T08:07:15;29.23;;;21.33;;
14470;SDS011;7321;50.802;4.336;2024-03-08T08:09:41;32.80;;;21.60;;
14470;SDS011;7321;50.802;4.336;2024-03-08T08:12:08;27.43;;;20.60;;
14470;SDS011;7321;50.802;4.336;2024-03-08T08:17:32;28.63;;;20.30;;
14470;SDS011;7321;50.802;4.336;2024-03-08T08:20:00;26.23;;;20.37;;
14470;SDS011;7321;50.802;4.336;2024-03-08T08:22:26;27.53;;;20.47;;
14470;SDS011;7321;50.802;4.336;2024-03-08T08:24:52;28.00;;;19.03;;
14470;SDS011;7321;50.802;4.336;2024-03-08T08:27:18;27.70;;;20.40;;
14470;SDS011;7321;50.802;4.336;2024-03-08T08:29:44;29.07;;;20.73;;
14470;SDS011;7321;50.802;4.336;2024-03-08T08:32:19;25.03;;;19.27;;
14470;SDS011;7321;50.802;4.336;2024-03-08T08:34:45;28.67;;;20.30;;
14470;SDS011;7321;50.802;4.336;2024-03-08T08:37:16;26.87;;;20.30;;
14470;SDS011;7321;50.802;4.336;2024-03-08T08:39:42;25.27;;;18.50;;
14470;SDS011;7321;50.802;4.336;2024-03-08T08:42:08;28.77;;;20.70;;
14470;SDS011;7321;50.802;4.336;2024-03-08T08:44:36;24.20;;;19.43;;
14470;SDS011;7321;50.802;4.336;2024-03-08T08:47:02;31.87;;;20.10;;
14470;SDS011;7321;50.802;4.336;2024-03-08T08:49:31;26.40;;;18.33;;
14470;SDS011;7321;50.802;4.336;2024-03-08T08:51:57;28.10;;;19.93;;
14470;SDS011;7321;50.802;4.336;2024-03-08T08:54:28;24.63;;;18.77;;
14470;SDS011;7321;50.802;4.336;2024-03-08T08:56:54;25.30;;;18.53;;
14470;SDS011;7321;50.802;4.336;2024-03-08T08:59:20;25.13;;;18.53;;
14470;SDS011;7321;50.802;4.336;2024-03-08T09:01:55;25.23;;;18.40;;
14470;SDS011;7321;50.802;4.336;2024-03-08T09:04:20;26.47;;;18.87;;
14470;SDS011;7321;50.802;4.336;2024-03-08T09:06:47;24.77;;;18.80;;
14470;SDS011;7321;50.802;4.336;2024-03-08T09:09:12;25.57;;;18.57;;
14470;SDS011;7321;50.802;4.336;2024-03-08T09:11:38;24.33;;;18.43;;
14470;SDS011;7321;50.802;4.336;2024-03-08T09:14:07;29.67;;;18.87;;
14470;SDS011;7321;50.802;4.336;2024-03-08T09:16:34;23.50;;;17.10;;
14470;SDS011;7321;50.802;4.336;2024-03-08T09:18:59;21.03;;;17.10;;
14470;SDS011;7321;50.802;4.336;2024-03-08T09:21:25;24.23;;;18.60;;
14470;SDS011;7321;50.802;4.336;2024-03-08T09:23:52;24.40;;;17.53;;
14470;SDS011;7321;50.802;4.336;2024-03-08T09:26:19;22.37;;;17.40;;
14470;SDS011;7321;50.802;4.336;2024-03-08T09:28:45;22.60;;;18.07;;
14470;SDS011;7321;50.802;4.336;2024-03-08T09:31:11;23.57;;;17.47;;
14470;SDS011;7321;50.802;4.336;2024-03-08T09:33:37;23.23;;;16.93;;
14470;SDS011;7321;50.802;4.336;2024-03-08T09:36:07;22.60;;;17.50;;
14470;SDS011;7321;50.802;4.336;2024-03-08T09:38:33;22.93;;;18.23;;
14470;SDS011;7321;50.802;4.336;2024-03-08T09:41:02;23.10;;;17.80;;
14470;SDS011;7321;50.802;4.336;2024-03-08T09:43:29;25.60;;;18.03;;
14470;SDS011;7321;50.802;4.336;2024-03-08T09:45:55;22.97;;;17.83;;
14470;SDS011;7321;50.802;4.336;2024-03-08T09:48:22;23.50;;;18.40;;
14470;SDS011;7321;50.802;4.336;2024-03-08T09:50:49;20.50;;;16.70;;
14470;SDS011;7321;50.802;4.336;2024-03-08T09:53:15;22.67;;;17.80;;
14470;SDS011;7321;50.802;4.336;2024-03-08T09:55:41;24.27;;;18.27;;
14470;SDS011;7321;50.802;4.336;2024-03-08T09:58:10;22.37;;;17.40;;
14470;SDS011;7321;50.802;4.336;2024-03-08T10:00:57;22.83;;;17.63;;
14470;SDS011;7321;50.802;4.336;2024-03-08T10:03:24;23.87;;;17.40;;
14470;SDS011;7321;50.802;4.336;2024-03-08T10:05:52;22.80;;;18.20;;
14470;SDS011;7321;50.802;4.336;2024-03-08T10:08:25;23.47;;;17.27;;
14470;SDS011;7321;50.802;4.336;2024-03-08T10:10:52;21.60;;;17.17;;
14470;SDS011;7321;50.802;4.336;2024-03-08T10:13:18;23.63;;;17.93;;
14470;SDS011;7321;50.802;4.336;2024-03-08T10:15:45;22.07;;;17.33;;
14470;SDS011;7321;50.802;4.336;2024-03-08T10:18:10;22.50;;;16.63;;
14470;SDS011;7321;50.802;4.336;2024-03-08T10:20:36;22.63;;;17.80;;
14470;SDS011;7321;50.802;4.336;2024-03-08T10:23:02;22.93;;;17.60;;
14470;SDS011;7321;50.802;4.336;2024-03-08T10:27:59;22.07;;;17.03;;
14470;SDS011;7321;50.802;4.336;2024-03-08T10:30:29;22.77;;;17.73;;
14470;SDS011;7321;50.802;4.336;2024-03-08T10:32:57;22.23;;;17.40;;
14470;SDS011;7321;50.802;4.336;2024-03-08T10:35:24;24.53;;;17.40;;
14470;SDS011;7321;50.802;4.336;2024-03-08T10:37:52;23.13;;;17.50;;
14470;SDS011;7321;50.802;4.336;2024-03-08T10:40:24;24.13;;;17.53;;
14470;SDS011;7321;50.802;4.336;2024-03-08T10:45:29;24.07;;;17.00;;
14470;SDS011;7321;50.802;4.336;2024-03-08T10:50:37;21.77;;;17.53;;
14470;SDS011;7321;50.802;4.336;2024-03-08T10:53:04;19.63;;;16.13;;
14470;SDS011;7321;50.802;4.336;2024-03-08T10:55:31;22.23;;;16.80;;
14470;SDS011;7321;50.802;4.336;2024-03-08T10:57:59;22.83;;;17.43;;
14470;SDS011;7321;50.802;4.336;2024-03-08T11:00:25;25.53;;;18.03;;
14470;SDS011;7321;50.802;4.336;2024-03-08T11:02:52;23.70;;;17.97;;
14470;SDS011;7321;50.802;4.336;2024-03-08T11:05:32;20.87;;;17.07;;
14470;SDS011;7321;50.802;4.336;2024-03-08T11:13:36;24.07;;;17.40;;
14470;SDS011;7321;50.802;4.336;2024-03-08T11:16:11;22.93;;;16.90;;
14470;SDS011;7321;50.802;4.336;2024-03-08T11:18:58;20.83;;;16.63;;
14470;SDS011;7321;50.802;4.336;2024-03-08T11:21:31;23.63;;;18.30;;
14470;SDS011;7321;50.802;4.336;2024-03-08T11:24:08;20.67;;;17.03;;
14470;SDS011;7321;50.802;4.336;2024-03-08T11:26:37;22.77;;;17.20;;
14470;SDS011;7321;50.802;4.336;2024-03-08T11:32:07;21.07;;;17.10;;
14470;SDS011;7321;50.802;4.336;2024-03-08T11:34:35;23.27;;;17.33;;
14470;SDS011;7321;50.802;4.336;2024-03-08T11:37:05;19.50;;;16.03;;
14470;SDS011;7321;50.802;4.336;2024-03-08T11:39:53;21.47;;;17.10;;
14470;SDS011;7321;50.802;4.336;2024-03-08T11:42:27;27.27;;;17.30;;
14470;SDS011;7321;50.802;4.336;2024-03-08T11:44:53;19.03;;;16.33;;
14470;SDS011;7321;50.802;4.336;2024-03-08T11:47:20;19.77;;;15.53;;
14470;SDS011;7321;50.802;4.336;2024-03-08T11:49:46;26.60;;;17.40;;
14470;SDS011;7321;50.802;4.336;2024-03-08T11:52:16;20.43;;;16.47;;
14470;SDS011;7321;50.802;4.336;2024-03-08T11:54:43;19.70;;;15.53;;
14470;SDS011;7321;50.802;4.336;2024-03-08T11:57:23;22.73;;;16.03;;
14470;SDS011;7321;50.802;4.336;2024-03-08T11:59:49;20.33;;;16.37;;
14470;SDS011;7321;50.802;4.336;2024-03-08T12:02:16;21.73;;;15.80;;
14470;SDS011;7321;50.802;4.336;2024-03-08T12:04:44;20.50;;;16.27;;
14470;SDS011;7321;50.802;4.336;2024-03-08T12:07:11;19.53;;;15.87;;
14470;SDS011;7321;50.802;4.336;2024-03-08T12:09:40;19.20;;;16.67;;
14470;SDS011;7321;50.802;4.336;2024-03-08T12:12:06;19.23;;;16.37;;
14470;SDS011;7321;50.802;4.336;2024-03-08T12:14:33;23.20;;;16.33;;
14470;SDS011;7321;50.802;4.336;2024-03-08T12:16:59;23.37;;;16.17;;
14470;SDS011;7321;50.802;4.336;2024-03-08T12:19:30;22.43;;;16.33;;
14470;SDS011;7321;50.802;4.336;2024-03-08T12:21:55;18.13;;;15.40;;
14470;SDS011;7321;50.802;4.336;2024-03-08T12:24:21;20.83;;;15.43;;
14470;SDS011;7321;50.802;4.336;2024-03-08T12:26:48;17.47;;;14.60;;
14470;SDS011;7321;50.802;4.336;2024-03-08T12:31:45;18.10;;;14.90;;
14470;SDS011;7321;50.802;4.336;2024-03-08T12:34:12;21.50;;;15.70;;
14470;SDS011;7321;50.802;4.336;2024-03-08T12:36:48;19.07;;;14.80;;
14470;SDS011;7321;50.802;4.336;2024-03-08T12:39:20;19.30;;;14.83;;
14470;SDS011;7321;50.802;4.336;2024-03-08T12:41:48;19.73;;;16.07;;
14470;SDS011;7321;50.802;4.336;2024-03-08T12:44:17;19.43;;;15.67;;
14470;SDS011;7321;50.802;4.336;2024-03-08T12:46:44;21.07;;;16.07;;
14470;SDS011;7321;50.802;4.336;2024-03-08T12:49:10;16.77;;;14.97;;
14470;SDS011;7321;50.802;4.336;2024-03-08T12:51:37;17.60;;;14.50;;
14470;SDS011;7321;50.802;4.336;2024-03-08T12:54:04;19.53;;;14.93;;
14470;SDS011;7321;50.802;4.336;2024-03-08T12:56:32;16.43;;;14.63;;
14470;SDS011;7321;50.802;4.336;2024-03-08T12:59:00;20.20;;;15.47;;
14470;SDS011;7321;50.802;4.336;2024-03-08T13:01:26;17.50;;;15.23;;
14470;SDS011;7321;50.802;4.336;2024-03-08T13:03:55;20.20;;;15.27;;
14470;SDS011;7321;50.802;4.336;2024-03-08T13:06:21;18.70;;;14.87;;
14470;SDS011;7321;50.802;4.336;2024-03-08T13:08:53;18.50;;;14.20;;
14470;SDS011;7321;50.802;4.336;2024-03-08T13:11:19;18.67;;;13.97;;
14470;SDS011;7321;50.802;4.336;2024-03-08T13:13:45;18.63;;;14.50;;
14470;SDS011;7321;50.802;4.336;2024-03-08T13:16:11;17.77;;;14.47;;
14470;SDS011;7321;50.802;4.336;2024-03-08T13:18:40;17.60;;;15.17;;
14470;SDS011;7321;50.802;4.336;2024-03-08T13:21:09;20.53;;;14.30;;
14470;SDS011;7321;50.802;4.336;2024-03-08T13:23:39;19.57;;;15.07;;
14470;SDS011;7321;50.802;4.336;2024-03-08T13:26:07;14.90;;;13.30;;
14470;SDS011;7321;50.802;4.336;2024-03-08T13:28:33;20.93;;;14.97;;
14470;SDS011;7321;50.802;4.336;2024-03-08T13:31:05;16.53;;;13.37;;
14470;SDS011;7321;50.802;4.336;2024-03-08T13:33:35;21.27;;;14.53;;
14470;SDS011;7321;50.802;4.336;2024-03-08T13:36:07;16.20;;;13.77;;
14470;SDS011;7321;50.802;4.336;2024-03-08T13:38:49;17.83;;;14.10;;
14470;SDS011;7321;50.802;4.336;2024-03-08T13:41:15;17.90;;;14.40;;
14470;SDS011;7321;50.802;4.336;2024-03-08T13:43:45;18.10;;;14.50;;
14470;SDS011;7321;50.802;4.336;2024-03-08T13:46:14;20.90;;;15.37;;
14470;SDS011;7321;50.802;4.336;2024-03-08T13:48:40;17.07;;;13.30;;
14470;SDS011;7321;50.802;4.336;2024-03-08T13:51:06;18.47;;;14.00;;
14470;SDS011;7321;50.802;4.336;2024-03-08T13:53:33;19.13;;;13.83;;
14470;SDS011;7321;50.802;4.336;2024-03-08T13:56:02;16.00;;;12.50;;
14470;SDS011;7321;50.802;4.336;2024-03-08T13:58:28;17.97;;;14.20;;
14470;SDS011;7321;50.802;4.336;2024-03-08T14:00:57;18.17;;;13.77;;
14470;SDS011;7321;50.802;4.336;2024-03-08T14:03:24;16.17;;;13.30;;
14470;SDS011;7321;50.802;4.336;2024-03-08T14:05:50;17.63;;;12.87;;
14470;SDS011;7321;50.802;4.336;2024-03-08T14:08:16;16.10;;;12.73;;
14470;SDS011;7321;50.802;4.336;2024-03-08T14:10:42;15.87;;;12.70;;
14470;SDS011;7321;50.802;4.336;2024-03-08T14:13:12;16.43;;;12.53;;
14470;SDS011;7321;50.802;4.336;2024-03-08T14:15:40;18.23;;;13.13;;
14470;SDS011;7321;50.802;4.336;2024-03-08T14:18:07;14.90;;;12.20;;
14470;SDS011;7321;50.802;4.336;2024-03-08T14:20:33;17.20;;;12.40;;
14470;SDS011;7321;50.802;4.336;2024-03-08T14:22:59;20.70;;;13.30;;
14470;SDS011;7321;50.802;4.336;2024-03-08T14:25:25;16.03;;;12.50;;
14470;SDS011;7321;50.802;4.336;2024-03-08T14:27:51;16.27;;;12.63;;
14470;SDS011;7321;50.802;4.336;2024-03-08T14:30:19;17.37;;;12.90;;
14470;SDS011;7321;50.802;4.336;2024-03-08T14:33:15;15.77;;;12.70;;
14470;SDS011;7321;50.802;4.336;2024-03-08T14:35:41;18.17;;;13.23;;
14470;SDS011;7321;50.802;4.336;2024-03-08T14:38:08;14.60;;;12.47;;
14470;SDS011;7321;50.802;4.336;2024-03-08T14:40:36;14.87;;;11.20;;
14470;SDS011;7321;50.802;4.336;2024-03-08T14:43:02;13.13;;;11.23;;
14470;SDS011;7321;50.802;4.336;2024-03-08T14:45:29;14.00;;;12.27;;
14470;SDS011;7321;50.802;4.336;2024-03-08T14:47:56;13.33;;;11.00;;
14470;SDS011;7321;50.802;4.336;2024-03-08T14:50:23;15.30;;;11.53;;
14470;SDS011;7321;50.802;4.336;2024-03-08T14:52:50;13.17;;;10.80;;
14470;SDS011;7321;50.802;4.336;2024-03-08T14:55:19;12.47;;;10.50;;
14470;SDS011;7321;50.802;4.336;2024-03-08T14:57:49;14.83;;;10.90;;
14470;SDS011;7321;50.802;4.336;2024-03-08T15:00:17;13.13;;;10.90;;
14470;SDS011;7321;50.802;4.336;2024-03-08T15:02:58;14.70;;;11.63;;
14470;SDS011;7321;50.802;4.336;2024-03-08T15:05:24;13.10;;;11.23;;
14470;SDS011;7321;50.802;4.336;2024-03-08T15:07:57;12.90;;;10.70;;